createdAt,value
2022-11-20T00:01:12.176Z,2.75
2022-11-20T00:03:38.838Z,2.77
2022-11-20T00:06:07.158Z,2.80
2022-11-20T00:08:34.266Z,2.73
2022-11-20T00:11:04.014Z,2.64
2022-11-20T00:13:30.622Z,2.59
2022-11-20T00:16:01.058Z,2.50
2022-11-20T00:18:29.307Z,2.38
2022-11-20T00:21:01.873Z,2.20
2022-11-20T00:23:28.468Z,2.06
2022-11-20T00:25:55.041Z,2.01
2022-11-20T00:28:21.598Z,1.97
2022-11-20T00:30:48.127Z,1.80
2022-11-20T00:33:14.737Z,1.80
2022-11-20T00:35:42.708Z,1.71
2022-11-20T00:38:09.275Z,1.63
2022-11-20T00:40:35.844Z,1.57
2022-11-20T00:43:02.479Z,1.52
2022-11-20T00:45:29.041Z,1.48
2022-11-20T00:47:55.681Z,1.48
2022-11-20T00:50:22.185Z,1.44
2022-11-20T00:52:50.129Z,1.29
2022-11-20T00:55:16.683Z,1.20
2022-11-20T00:57:43.228Z,1.12
2022-11-20T01:00:10.484Z,1.01
2022-11-20T01:02:37.047Z,0.90
2022-11-20T01:05:03.969Z,0.88
2022-11-20T01:07:30.662Z,0.88
2022-11-20T01:09:59.612Z,0.86
2022-11-20T01:12:26.296Z,0.82
2022-11-20T01:14:52.864Z,0.78
2022-11-20T01:17:19.547Z,0.59
2022-11-20T01:19:48.975Z,0.68
2022-11-20T01:22:15.602Z,0.57
2022-11-20T01:24:42.250Z,0.57
2022-11-20T01:27:10.296Z,0.57
2022-11-20T01:29:36.801Z,0.46
2022-11-20T01:32:03.488Z,0.53
2022-11-20T01:34:30.162Z,0.45
2022-11-20T01:36:56.757Z,0.53
2022-11-20T01:39:25.436Z,0.49
2022-11-20T01:41:53.710Z,0.47
2022-11-20T01:44:43.612Z,0.51
2022-11-20T01:47:13.848Z,0.56
2022-11-20T01:49:45.921Z,0.59
2022-11-20T01:52:17.085Z,0.60
2022-11-20T01:54:48.091Z,0.50
2022-11-20T01:57:16.598Z,0.48
2022-11-20T01:59:48.172Z,0.56
2022-11-20T02:02:18.624Z,0.52
2022-11-20T02:04:45.352Z,0.48
2022-11-20T02:07:12.619Z,0.45
2022-11-20T02:09:39.251Z,0.42
2022-11-20T02:12:06.731Z,0.43
2022-11-20T02:14:33.312Z,0.52
2022-11-20T02:17:01.242Z,0.43
2022-11-20T02:19:30.126Z,0.50
2022-11-20T02:22:02.973Z,0.50
2022-11-20T02:24:31.153Z,0.55
2022-11-20T02:27:00.756Z,0.59
2022-11-20T02:29:31.808Z,0.55
2022-11-20T02:32:01.163Z,0.50
2022-11-20T02:34:27.725Z,0.53
2022-11-20T02:36:54.652Z,0.56
2022-11-20T02:39:23.743Z,0.64
2022-11-20T02:41:53.714Z,0.72
2022-11-20T02:44:20.723Z,0.76
2022-11-20T02:46:47.424Z,0.79
2022-11-20T02:49:13.976Z,0.86
2022-11-20T02:51:40.653Z,0.94
2022-11-20T02:54:07.278Z,0.97
2022-11-20T02:56:33.869Z,1.00
2022-11-20T02:59:01.848Z,1.05
2022-11-20T03:01:28.538Z,1.02
2022-11-20T03:03:55.179Z,1.20
2022-11-20T03:06:21.703Z,1.22
2022-11-20T03:08:48.561Z,1.32
2022-11-20T03:11:15.346Z,1.23
2022-11-20T03:13:41.942Z,1.32
2022-11-20T03:16:12.831Z,1.43
2022-11-20T03:18:39.969Z,1.44
2022-11-20T03:21:06.842Z,1.44
2022-11-20T03:23:34.095Z,1.54
2022-11-20T03:26:15.213Z,1.58
2022-11-20T03:28:42.222Z,1.53
2022-11-20T03:31:12.332Z,1.60
2022-11-20T03:33:39.747Z,1.59
2022-11-20T03:36:08.810Z,1.63
2022-11-20T03:38:35.836Z,1.63
2022-11-20T03:41:04.836Z,1.61
2022-11-20T03:43:32.288Z,1.54
2022-11-20T03:45:59.415Z,1.47
2022-11-20T03:48:30.064Z,1.56
2022-11-20T03:51:08.401Z,1.55
2022-11-20T03:53:35.068Z,1.51
2022-11-20T03:56:01.637Z,1.46
2022-11-20T03:58:28.265Z,1.51
2022-11-20T04:00:54.782Z,1.58
2022-11-20T04:03:21.323Z,1.59
2022-11-20T04:05:49.306Z,1.56
2022-11-20T04:08:15.929Z,1.54
2022-11-20T04:10:42.439Z,1.61
2022-11-20T04:13:09.005Z,1.58
2022-11-20T04:15:38.381Z,1.64
2022-11-20T04:18:05.433Z,1.61
2022-11-20T04:20:31.936Z,1.56
2022-11-20T04:22:59.888Z,2.05
2022-11-20T04:25:26.485Z,1.56
2022-11-20T04:27:53.095Z,1.52
2022-11-20T04:30:19.676Z,1.62
2022-11-20T04:32:46.305Z,1.57
2022-11-20T04:35:12.886Z,1.64
2022-11-20T04:37:39.443Z,1.55
2022-11-20T04:40:08.368Z,1.64
2022-11-20T04:42:36.022Z,1.60
2022-11-20T04:45:02.653Z,1.56
2022-11-20T04:47:29.262Z,1.52
2022-11-20T04:49:55.926Z,1.54
2022-11-20T04:52:22.632Z,1.46
2022-11-20T04:54:49.291Z,1.45
2022-11-20T04:57:17.200Z,1.41
2022-11-20T04:59:43.906Z,1.38
2022-11-20T05:02:11.491Z,1.35
2022-11-20T05:04:38.177Z,1.24
2022-11-20T05:07:04.812Z,1.13
2022-11-20T05:09:31.679Z,1.08
2022-11-20T05:11:58.164Z,1.07
2022-11-20T05:14:26.167Z,0.94
2022-11-20T05:16:52.936Z,0.91
2022-11-20T05:19:19.927Z,0.90
2022-11-20T05:21:46.754Z,0.83
2022-11-20T05:24:13.387Z,0.84
2022-11-20T05:26:40.046Z,0.80
2022-11-20T05:29:06.781Z,0.84
2022-11-20T05:31:34.712Z,0.80
2022-11-20T05:34:01.352Z,0.81
2022-11-20T05:36:27.882Z,0.76
2022-11-20T05:38:59.782Z,0.63
2022-11-20T05:41:28.085Z,0.66
2022-11-20T05:43:54.717Z,0.58
2022-11-20T05:46:27.835Z,0.54
2022-11-20T05:48:57.885Z,0.66
2022-11-20T05:51:25.552Z,0.52
2022-11-20T05:53:52.131Z,0.50
2022-11-20T05:56:20.976Z,0.38
2022-11-20T05:58:48.610Z,0.39
2022-11-20T06:01:17.312Z,0.32
2022-11-20T06:03:44.693Z,0.33
2022-11-20T06:06:12.984Z,0.35
2022-11-20T06:08:39.623Z,0.57
2022-11-20T06:11:07.333Z,0.82
2022-11-20T06:13:37.939Z,0.57
2022-11-20T06:16:07.730Z,0.53
2022-11-20T06:18:34.285Z,0.68
2022-11-20T06:21:02.441Z,0.69
2022-11-20T06:23:31.446Z,0.76
2022-11-20T06:25:59.335Z,0.87
2022-11-20T06:28:25.895Z,0.90
2022-11-20T06:30:52.418Z,0.97
2022-11-20T06:33:19.062Z,1.05
2022-11-20T06:35:45.631Z,1.04
2022-11-20T06:38:12.219Z,1.11
2022-11-20T06:40:42.504Z,1.28
2022-11-20T06:43:09.297Z,1.38
2022-11-20T06:45:35.925Z,1.32
2022-11-20T06:48:02.514Z,1.25
2022-11-20T06:50:29.093Z,1.31
2022-11-20T06:52:55.791Z,1.33
2022-11-20T06:55:22.368Z,1.35
2022-11-20T06:57:55.766Z,1.35
2022-11-20T07:00:22.727Z,1.41
2022-11-20T07:02:49.271Z,1.43
2022-11-20T07:05:15.956Z,1.52
2022-11-20T07:07:42.584Z,1.50
2022-11-20T07:10:10.492Z,1.49
2022-11-20T07:12:37.052Z,1.59
2022-11-20T07:15:06.281Z,1.48
2022-11-20T07:17:32.876Z,1.47
2022-11-20T07:19:59.456Z,1.51
2022-11-20T07:22:26.039Z,1.53
2022-11-20T07:24:52.625Z,1.59
2022-11-20T07:27:19.275Z,1.56
2022-11-20T07:29:45.798Z,1.69
2022-11-20T07:32:13.782Z,1.70
2022-11-20T07:34:40.311Z,1.70
2022-11-20T07:37:10.324Z,1.60
2022-11-20T07:39:37.353Z,1.62
2022-11-20T07:42:03.984Z,1.72
2022-11-20T07:44:30.704Z,1.77
2022-11-20T07:46:57.272Z,1.81
2022-11-20T07:49:25.193Z,1.81
2022-11-20T07:51:52.051Z,1.87
2022-11-20T07:54:18.781Z,1.91
2022-11-20T07:56:45.417Z,1.98
2022-11-20T07:59:12.077Z,2.08
2022-11-20T08:01:38.693Z,2.17
2022-11-20T08:04:05.319Z,2.25
2022-11-20T08:06:33.339Z,2.30
2022-11-20T08:09:00.197Z,2.34
2022-11-20T08:11:26.750Z,2.42
2022-11-20T08:13:53.461Z,2.43
2022-11-20T08:16:20.065Z,2.43
2022-11-20T08:18:46.708Z,2.41
2022-11-20T08:21:13.242Z,2.32
2022-11-20T08:23:41.168Z,2.29
2022-11-20T08:26:07.723Z,2.34
2022-11-20T08:28:34.427Z,2.23
2022-11-20T08:31:01.570Z,2.29
2022-11-20T08:33:28.530Z,2.33
2022-11-20T08:35:59.718Z,2.42
2022-11-20T08:38:26.393Z,2.48
2022-11-20T08:40:57.575Z,2.54
2022-11-20T08:43:24.186Z,2.56
2022-11-20T08:45:50.774Z,2.71
2022-11-20T08:48:17.352Z,2.81
2022-11-20T08:50:44.116Z,3.02
2022-11-20T08:53:10.700Z,3.33
2022-11-20T08:55:37.361Z,3.76
2022-11-20T08:58:06.142Z,3.90
2022-11-20T09:00:32.968Z,3.91
2022-11-20T09:02:59.760Z,3.77
2022-11-20T09:05:26.416Z,3.71
2022-11-20T09:07:52.951Z,3.67
2022-11-20T09:10:24.354Z,3.68
2022-11-20T09:12:52.388Z,3.65
2022-11-20T09:15:20.640Z,3.60
2022-11-20T09:17:51.848Z,3.58
2022-11-20T09:20:18.677Z,3.50
2022-11-20T09:22:45.344Z,3.47
2022-11-20T09:25:12.054Z,3.53
2022-11-20T09:27:38.803Z,3.57
2022-11-20T09:30:06.473Z,3.61
2022-11-20T09:32:34.382Z,3.63
2022-11-20T09:37:32.804Z,3.73
2022-11-20T09:39:59.403Z,3.74
2022-11-20T09:42:38.664Z,3.83
2022-11-20T09:45:20.851Z,3.86
2022-11-20T09:48:15.545Z,3.88
2022-11-20T09:50:47.888Z,3.90
2022-11-20T09:53:21.305Z,3.89
2022-11-20T09:55:49.551Z,3.83
2022-11-20T09:58:26.597Z,3.85
2022-11-20T10:00:54.452Z,3.87
2022-11-20T10:03:36.926Z,3.89
2022-11-20T10:06:06.070Z,3.88
2022-11-20T10:08:42.809Z,3.89
2022-11-20T10:11:17.542Z,3.92
2022-11-20T10:13:53.513Z,3.99
2022-11-20T10:16:36.673Z,4.05
2022-11-20T10:19:21.853Z,4.18
2022-11-20T10:21:59.260Z,4.23
2022-11-20T10:24:41.463Z,4.28
2022-11-20T10:27:27.687Z,4.37
2022-11-20T10:30:04.028Z,4.44
2022-11-20T10:32:37.276Z,4.45
2022-11-20T10:35:18.824Z,4.53
2022-11-20T10:37:49.558Z,4.59
2022-11-20T10:40:23.363Z,4.69
2022-11-20T10:42:54.152Z,4.82
2022-11-20T10:45:32.979Z,4.97
2022-11-20T10:48:11.952Z,5.09
2022-11-20T10:50:47.143Z,5.13
2022-11-20T10:53:25.081Z,5.14
2022-11-20T10:55:57.079Z,5.16
2022-11-20T10:58:37.286Z,5.19
2022-11-20T11:01:05.143Z,5.18
2022-11-20T11:03:32.372Z,5.16
2022-11-20T11:06:08.044Z,5.17
2022-11-20T11:08:38.421Z,5.15
2022-11-20T11:11:18.208Z,5.14
2022-11-20T11:13:44.862Z,5.08
2022-11-20T11:16:21.799Z,5.19
2022-11-20T11:18:48.532Z,5.18
2022-11-20T11:21:23.580Z,5.11
2022-11-20T11:24:13.444Z,5.09
2022-11-20T11:26:53.607Z,5.08
2022-11-20T11:29:20.908Z,5.15
2022-11-20T11:31:47.824Z,5.14
2022-11-20T11:34:16.745Z,5.17
2022-11-20T11:36:53.321Z,5.21
2022-11-20T11:39:21.891Z,5.20
2022-11-20T11:41:49.512Z,5.20
2022-11-20T11:44:20.006Z,5.22
2022-11-20T11:46:55.267Z,5.26
2022-11-20T11:49:22.246Z,5.23
2022-11-20T11:52:02.064Z,5.28
2022-11-20T11:54:34.199Z,5.29
2022-11-20T11:57:05.667Z,5.28
2022-11-20T11:59:45.106Z,5.28
2022-11-20T12:02:23.413Z,5.29
2022-11-20T12:04:55.724Z,5.24
2022-11-20T12:07:46.609Z,5.27
2022-11-20T12:10:21.276Z,5.22
2022-11-20T12:12:53.166Z,5.24
2022-11-20T12:15:29.374Z,5.27
2022-11-20T12:17:56.122Z,5.26
2022-11-20T12:20:26.839Z,5.32
2022-11-20T12:23:02.867Z,5.38
2022-11-20T12:25:33.346Z,5.43
2022-11-20T12:28:19.642Z,5.49
2022-11-20T12:30:59.576Z,5.56
2022-11-20T12:33:45.502Z,5.61
2022-11-20T12:36:24.690Z,5.66
2022-11-20T12:39:18.111Z,5.67
2022-11-20T12:41:55.480Z,5.71
2022-11-20T12:44:35.802Z,5.79
2022-11-20T12:47:16.785Z,5.85
2022-11-20T12:49:51.216Z,5.87
2022-11-20T12:52:28.452Z,5.91
2022-11-20T12:55:10.754Z,5.93
2022-11-20T12:57:45.035Z,5.95
2022-11-20T13:00:16.390Z,5.99
2022-11-20T13:03:16.665Z,6.11
2022-11-20T13:05:53.036Z,6.09
2022-11-20T13:08:23.633Z,6.14
2022-11-20T13:10:59.793Z,6.17
2022-11-20T13:13:36.095Z,6.22
2022-11-20T13:16:09.445Z,6.29
2022-11-20T13:18:39.920Z,6.33
2022-11-20T13:21:18.747Z,6.35
2022-11-20T13:23:45.349Z,6.26
2022-11-20T13:26:19.751Z,6.22
2022-11-20T13:28:47.649Z,6.25
2022-11-20T13:31:30.979Z,6.32
2022-11-20T13:33:58.927Z,6.27
2022-11-20T13:36:27.803Z,6.29
2022-11-20T13:38:56.105Z,6.30
2022-11-20T13:41:29.147Z,6.29
2022-11-20T13:44:03.119Z,6.25
2022-11-20T13:46:38.248Z,6.28
2022-11-20T13:49:10.315Z,6.29
2022-11-20T13:51:43.898Z,6.31
2022-11-20T13:54:44.612Z,6.36
2022-11-20T13:57:33.852Z,6.39
2022-11-20T14:00:12.273Z,6.39
2022-11-20T14:02:41.208Z,6.36
2022-11-20T14:05:20.492Z,6.40
2022-11-20T14:07:48.508Z,6.35
2022-11-20T14:10:23.290Z,6.33
2022-11-20T14:12:54.344Z,6.31
2022-11-20T14:15:30.229Z,6.33
2022-11-20T14:17:57.717Z,6.31
2022-11-20T14:20:27.444Z,6.30
2022-11-20T14:22:55.590Z,6.31
2022-11-20T14:25:24.183Z,6.26
2022-11-20T14:27:55.297Z,6.26
2022-11-20T14:30:24.588Z,6.23
2022-11-20T14:32:52.537Z,6.21
2022-11-20T14:35:24.154Z,6.21
2022-11-20T14:37:51.240Z,6.17
2022-11-20T14:40:27.646Z,6.18
2022-11-20T14:42:55.917Z,6.12
2022-11-20T14:45:23.615Z,6.11
2022-11-20T14:47:52.395Z,6.08
2022-11-20T14:50:22.724Z,6.02
2022-11-20T14:52:54.018Z,6.02
2022-11-20T14:55:28.490Z,6.02
2022-11-20T14:58:02.149Z,6.00
2022-11-20T15:00:30.482Z,6.01
2022-11-20T15:02:57.025Z,5.98
2022-11-20T15:05:25.694Z,5.94
2022-11-20T15:08:04.745Z,5.97
2022-11-20T15:10:31.511Z,5.85
2022-11-20T15:13:06.006Z,5.89
2022-11-20T15:15:40.129Z,6.13
2022-11-20T15:18:12.260Z,5.95
2022-11-20T15:20:38.896Z,5.96
2022-11-20T15:23:11.876Z,5.96
2022-11-20T15:25:39.249Z,5.94
2022-11-20T15:28:16.864Z,5.95
2022-11-20T15:30:43.500Z,5.94
2022-11-20T15:33:11.037Z,5.91
2022-11-20T15:35:37.856Z,5.91
2022-11-20T15:38:04.397Z,5.90
2022-11-20T15:40:30.953Z,5.90
2022-11-20T15:42:57.533Z,5.89
2022-11-20T15:45:25.795Z,5.93
2022-11-20T15:47:52.367Z,5.91
2022-11-20T15:50:19.004Z,5.93
2022-11-20T15:52:45.567Z,5.93
2022-11-20T15:55:12.272Z,5.92
2022-11-20T15:57:38.842Z,5.94
2022-11-20T16:00:06.942Z,5.94
2022-11-20T16:02:38.729Z,5.94
2022-11-20T16:05:11.858Z,5.98
2022-11-20T16:07:38.944Z,5.97
2022-11-20T16:10:06.159Z,5.98
2022-11-20T16:12:32.769Z,5.96
2022-11-20T16:14:59.399Z,6.00
2022-11-20T16:17:26.036Z,6.12
2022-11-20T16:19:53.944Z,6.10
2022-11-20T16:22:20.694Z,6.09
2022-11-20T16:24:47.265Z,6.12
2022-11-20T16:27:13.875Z,6.14
2022-11-20T16:29:40.479Z,6.13
2022-11-20T16:32:07.062Z,6.14
2022-11-20T16:34:33.616Z,6.13
2022-11-20T16:37:01.521Z,6.16
2022-11-20T16:39:28.066Z,6.17
2022-11-20T16:41:54.671Z,6.15
2022-11-20T16:44:21.857Z,6.16
2022-11-20T16:46:48.717Z,6.20
2022-11-20T16:49:15.393Z,6.23
2022-11-20T16:51:42.178Z,6.25
2022-11-20T16:54:10.433Z,6.28
2022-11-20T16:56:37.021Z,6.29
2022-11-20T16:59:04.211Z,6.31
2022-11-20T17:01:31.891Z,6.34
2022-11-20T17:03:59.923Z,6.32
2022-11-20T17:06:28.045Z,6.27
2022-11-20T17:08:56.018Z,6.30
2022-11-20T17:11:24.418Z,6.31
2022-11-20T17:13:51.442Z,6.36
2022-11-20T17:16:19.713Z,6.37
2022-11-20T17:18:47.083Z,6.42
2022-11-20T17:21:13.910Z,6.49
2022-11-20T17:23:42.118Z,6.53
2022-11-20T17:26:10.753Z,6.59
2022-11-20T17:28:39.216Z,6.65
2022-11-20T17:31:07.656Z,6.67
2022-11-20T17:33:35.381Z,6.66
2022-11-20T17:36:02.588Z,6.70
2022-11-20T17:38:29.191Z,6.73
2022-11-20T17:41:02.247Z,6.78
2022-11-20T17:43:34.367Z,6.83
2022-11-20T17:46:05.173Z,6.85
2022-11-20T17:48:31.807Z,6.90
2022-11-20T17:50:59.884Z,6.94
2022-11-20T17:53:26.488Z,6.98
2022-11-20T17:55:55.993Z,6.93
2022-11-20T17:58:22.735Z,7.05
2022-11-20T18:00:49.267Z,7.06
2022-11-20T18:03:17.201Z,7.09
2022-11-20T18:05:43.785Z,7.08
2022-11-20T18:08:10.448Z,7.12
2022-11-20T18:10:37.252Z,7.14
2022-11-20T18:13:03.742Z,7.18
2022-11-20T18:15:30.343Z,7.18
2022-11-20T18:17:56.876Z,7.29
2022-11-20T18:20:31.102Z,7.29
2022-11-20T18:22:58.801Z,7.31
2022-11-20T18:25:25.458Z,7.42
2022-11-20T18:27:52.159Z,7.44
2022-11-20T18:30:18.955Z,7.39
2022-11-20T18:32:45.555Z,7.48
2022-11-20T18:35:12.081Z,7.51
2022-11-20T18:37:40.039Z,7.58
2022-11-20T18:40:08.000Z,7.61
2022-11-20T18:42:36.948Z,7.60
2022-11-20T18:45:04.098Z,7.58
2022-11-20T18:47:32.281Z,7.61
2022-11-20T18:50:00.523Z,7.56
2022-11-20T18:52:28.233Z,7.61
2022-11-20T18:54:56.587Z,7.64
2022-11-20T18:57:25.523Z,7.64
2022-11-20T18:59:52.724Z,7.62
2022-11-20T19:02:20.844Z,7.67
2022-11-20T19:04:47.779Z,7.64
2022-11-20T19:07:15.383Z,7.67
2022-11-20T19:09:48.559Z,7.71
2022-11-20T19:12:19.138Z,7.67
2022-11-20T19:14:45.842Z,7.62
2022-11-20T19:17:12.487Z,7.66
2022-11-20T19:19:39.299Z,7.72
2022-11-20T19:22:05.883Z,7.71
2022-11-20T19:24:32.521Z,7.67
2022-11-20T19:26:59.082Z,7.71
2022-11-20T19:29:27.349Z,7.73
2022-11-20T19:31:54.465Z,7.72
2022-11-20T19:34:21.103Z,7.73
2022-11-20T19:36:48.125Z,7.72
2022-11-20T19:39:15.037Z,7.75
2022-11-20T19:41:42.127Z,7.74
2022-11-20T19:44:10.404Z,7.73
2022-11-20T19:46:39.084Z,7.77
2022-11-20T19:49:07.102Z,7.76
2022-11-20T19:51:35.272Z,7.77
2022-11-20T19:54:02.661Z,7.75
2022-11-20T19:56:31.385Z,7.77
2022-11-20T19:58:58.356Z,7.74
2022-11-20T20:01:27.374Z,7.71
2022-11-20T20:03:55.983Z,7.72
2022-11-20T20:06:24.679Z,7.72
2022-11-20T20:08:55.038Z,7.71
2022-11-20T20:11:25.887Z,7.71
2022-11-20T20:13:52.493Z,7.71
2022-11-20T20:16:21.834Z,7.68
2022-11-20T20:18:48.628Z,7.64
2022-11-20T20:21:17.474Z,7.65
2022-11-20T20:23:44.786Z,7.63
2022-11-20T20:26:11.900Z,7.69
2022-11-20T20:28:39.182Z,7.67
2022-11-20T20:31:07.091Z,7.65
2022-11-20T20:33:33.703Z,7.65
2022-11-20T20:36:00.256Z,7.64
2022-11-20T20:38:28.255Z,7.65
2022-11-20T20:40:54.973Z,7.62
2022-11-20T20:43:21.656Z,7.60
2022-11-20T20:45:49.576Z,7.57
2022-11-20T20:48:17.371Z,7.53
2022-11-20T20:50:53.643Z,7.56
2022-11-20T20:53:20.320Z,7.55
2022-11-20T20:55:55.189Z,7.56
2022-11-20T20:58:21.898Z,7.55
2022-11-20T21:00:48.578Z,7.55
2022-11-20T21:03:15.192Z,7.56
2022-11-20T21:05:41.787Z,7.56
2022-11-20T21:08:08.598Z,7.56
2022-11-20T21:10:35.113Z,7.53
2022-11-20T21:13:03.048Z,7.51
2022-11-20T21:15:29.608Z,7.52
2022-11-20T21:17:56.169Z,7.50
2022-11-20T21:20:22.727Z,7.47
2022-11-20T21:22:49.332Z,7.43
2022-11-20T21:25:15.875Z,7.38
2022-11-20T21:27:42.464Z,7.41
2022-11-20T21:30:11.605Z,7.39
2022-11-20T21:32:38.251Z,7.41
2022-11-20T21:35:05.578Z,7.43
2022-11-20T21:37:34.971Z,7.43
2022-11-20T21:40:04.421Z,7.44
2022-11-20T21:42:30.990Z,7.41
2022-11-20T21:44:57.601Z,7.41
2022-11-20T21:47:25.475Z,7.38
2022-11-20T21:49:52.011Z,7.37
2022-11-20T21:52:18.601Z,7.36
2022-11-20T21:54:45.173Z,7.37
2022-11-20T21:57:11.787Z,7.35
2022-11-20T21:59:38.445Z,7.36
2022-11-20T22:02:05.123Z,7.38
2022-11-20T22:04:33.220Z,7.38
2022-11-20T22:06:59.859Z,7.37
2022-11-20T22:09:26.856Z,7.37
2022-11-20T22:11:53.444Z,7.38
2022-11-20T22:14:20.289Z,7.40
2022-11-20T22:16:47.529Z,7.38
2022-11-20T22:19:15.894Z,7.38
2022-11-20T22:21:43.819Z,7.39
2022-11-20T22:24:13.343Z,7.40
2022-11-20T22:26:40.838Z,7.38
2022-11-20T22:29:12.280Z,7.39
2022-11-20T22:31:38.882Z,7.31
2022-11-20T22:34:05.501Z,7.25
2022-11-20T22:36:32.142Z,7.22
2022-11-20T22:39:02.484Z,7.20
2022-11-20T22:41:29.695Z,7.15
2022-11-20T22:43:58.004Z,7.12
2022-11-20T22:46:27.361Z,7.05
2022-11-20T22:48:55.630Z,6.97
2022-11-20T22:51:24.102Z,7.00
2022-11-20T22:53:51.136Z,7.03
2022-11-20T22:56:19.738Z,7.08
2022-11-20T22:58:48.196Z,7.13
2022-11-20T23:01:16.588Z,7.16
2022-11-20T23:03:45.232Z,7.18
2022-11-20T23:06:13.196Z,7.20
2022-11-20T23:08:40.792Z,7.21
2022-11-20T23:11:09.943Z,7.22
2022-11-20T23:13:38.232Z,7.24
2022-11-20T23:16:06.669Z,7.24
2022-11-20T23:18:34.016Z,7.24
2022-11-20T23:21:04.743Z,7.25
2022-11-20T23:23:31.405Z,7.23
2022-11-20T23:26:00.347Z,7.25
2022-11-20T23:28:26.925Z,7.20
2022-11-20T23:30:54.816Z,7.18
2022-11-20T23:33:21.360Z,7.10
2022-11-20T23:35:48.014Z,7.04
2022-11-20T23:38:14.940Z,7.01
2022-11-20T23:40:41.606Z,7.00
2022-11-20T23:43:08.245Z,7.02
2022-11-20T23:45:38.454Z,7.05
2022-11-20T23:48:06.876Z,7.05
2022-11-20T23:50:33.856Z,7.08
2022-11-20T23:53:00.569Z,7.09
2022-11-20T23:55:27.590Z,7.10
2022-11-20T23:57:54.244Z,7.11
